HKNW/WIL METAR and TAF weather

Enter ICAO airport designator
Station Type Date Time Source
HKNW METAR 2019/05/20 05:00 UTC NOAA

HKNW 200500Z 00000KT 9999 SCT020 SCT080 18/16 Q1023


Station Type Date Time Source
HKNW Decoded METAR 2019/05/20 05:00 UTC NOAA

Nairobi / Wilson, Kenya (HKNW) 01-19S 036-49E 1679M
May 20, 2019 - 01:00 AM EDT / 2019.05.20 0500 UTC
Wind: Calm:0
Visibility: greater than 7 mile(s):0
Sky conditions: partly cloudy
Temperature: 64 F (18 C)
Dew Point: 60 F (16 C)
Relative Humidity: 88%
Pressure (altimeter): 30.21 in. Hg (1023 hPa)
ob: HKNW 200500Z 00000KT 9999 SCT020 SCT080 18/16 Q1023
cycle: 5

Station Type Date Time Source
HKNW TAF 2012/11/22 12:18 UTC NOAA

TAF TAF HKNW 221030Z 2212/2312 03010KT 9999 FEW025CB SCT026
TEMPO 2212/2218 VRB10KT -SHRA FEW024CB BKN025
BECMG 2220/2223 07005KT CAVOK
TEMPO 2300/2300 VRB05KT 9999 FEW006 BKN016
BECMG 2308/2311 08010KT SCT026

Example: see airport list